createdAt,value
2018-08-29T00:00:13.175Z,6.80
2018-08-29T00:02:40.979Z,6.57
2018-08-29T00:05:08.763Z,7.10
2018-08-29T00:07:41.923Z,7.07
2018-08-29T00:10:13.408Z,6.60
2018-08-29T00:12:41.225Z,6.73
2018-08-29T00:15:09.008Z,6.63
2018-08-29T00:17:37.131Z,6.77
2018-08-29T00:20:04.955Z,6.83
2018-08-29T00:22:32.830Z,7.10
2018-08-29T00:25:00.608Z,6.23
2018-08-29T00:27:28.374Z,7.17
2018-08-29T00:29:56.206Z,6.83
2018-08-29T00:32:24.065Z,6.70
2018-08-29T00:34:52.194Z,7.73
2018-08-29T00:37:20.047Z,5.17
2018-08-29T00:39:47.871Z,5.00
2018-08-29T00:42:15.651Z,5.33
2018-08-29T00:44:43.488Z,4.87
2018-08-29T00:47:11.278Z,5.23
2018-08-29T00:49:39.045Z,4.47
2018-08-29T00:52:06.982Z,4.80
2018-08-29T00:54:34.836Z,5.57
2018-08-29T00:57:02.602Z,4.50
2018-08-29T00:59:30.418Z,5.00
2018-08-29T01:01:58.226Z,4.77
2018-08-29T01:04:26.006Z,4.80
2018-08-29T01:06:53.856Z,4.80
2018-08-29T01:09:21.755Z,5.63
2018-08-29T01:11:49.532Z,3.53
2018-08-29T01:14:17.287Z,3.20
2018-08-29T01:16:45.080Z,2.73
2018-08-29T01:19:12.859Z,2.50
2018-08-29T01:21:42.484Z,3.40
2018-08-29T01:24:10.370Z,2.53
2018-08-29T01:26:38.232Z,2.20
2018-08-29T01:29:06.068Z,3.50
2018-08-29T01:31:33.859Z,3.20
2018-08-29T01:34:01.767Z,3.50
2018-08-29T01:36:29.684Z,2.87
2018-08-29T01:38:57.589Z,2.50
2018-08-29T01:41:25.439Z,2.60
2018-08-29T01:43:53.348Z,2.83
2018-08-29T01:46:21.294Z,3.17
2018-08-29T01:48:49.097Z,2.70
2018-08-29T01:51:16.935Z,2.80
2018-08-29T01:53:44.728Z,3.23
2018-08-29T01:56:12.567Z,2.23
2018-08-29T01:58:40.420Z,3.00
2018-08-29T02:01:08.347Z,3.00
2018-08-29T02:03:36.115Z,2.90
2018-08-29T02:06:04.132Z,2.90
2018-08-29T02:08:31.980Z,2.60
2018-08-29T02:10:59.759Z,2.77
2018-08-29T02:13:27.632Z,2.83
2018-08-29T02:15:55.460Z,2.77
2018-08-29T02:18:23.295Z,2.90
2018-08-29T02:20:51.339Z,2.60
2018-08-29T02:23:19.266Z,2.67
2018-08-29T02:25:47.591Z,2.70
2018-08-29T02:28:15.402Z,2.63
2018-08-29T02:30:43.292Z,2.77
2018-08-29T02:33:11.140Z,2.17
2018-08-29T02:35:39.082Z,2.40
2018-08-29T02:38:06.870Z,2.30
2018-08-29T02:40:34.791Z,2.40
2018-08-29T02:43:07.868Z,2.57
2018-08-29T02:45:35.768Z,2.70
2018-08-29T02:48:03.587Z,2.33
2018-08-29T02:50:31.444Z,2.90
2018-08-29T02:52:59.290Z,2.47
2018-08-29T02:55:27.157Z,2.57
2018-08-29T02:57:56.004Z,1.90
2018-08-29T03:00:24.305Z,2.93
2018-08-29T03:02:52.644Z,2.73
2018-08-29T03:05:20.476Z,2.83
2018-08-29T03:07:48.255Z,2.63
2018-08-29T03:10:16.143Z,2.97
2018-08-29T03:12:43.970Z,3.23
2018-08-29T03:15:11.738Z,3.23
2018-08-29T03:17:39.609Z,2.83
2018-08-29T03:20:07.421Z,3.13
2018-08-29T03:22:35.305Z,3.03
2018-08-29T03:25:03.131Z,2.83
2018-08-29T03:27:30.956Z,2.50
2018-08-29T03:29:58.740Z,3.20
2018-08-29T03:32:26.589Z,2.13
2018-08-29T03:34:54.496Z,1.87
2018-08-29T03:37:22.282Z,1.97
2018-08-29T03:39:50.121Z,1.30
2018-08-29T03:42:18.060Z,1.33
2018-08-29T03:44:45.831Z,0.97
2018-08-29T03:47:13.630Z,0.97
2018-08-29T03:49:41.435Z,0.90
2018-08-29T03:52:09.290Z,1.07
2018-08-29T03:54:38.879Z,0.90
2018-08-29T03:57:06.677Z,1.03
2018-08-29T03:59:34.553Z,1.70
2018-08-29T04:02:02.341Z,1.47
2018-08-29T04:04:30.135Z,1.10
2018-08-29T04:06:58.031Z,1.17
2018-08-29T04:09:25.933Z,1.07
2018-08-29T04:11:53.722Z,0.87
2018-08-29T04:14:21.596Z,1.00
2018-08-29T04:16:49.392Z,0.77
2018-08-29T04:19:17.231Z,0.57
2018-08-29T04:21:45.207Z,0.60
2018-08-29T04:24:13.015Z,0.97
2018-08-29T04:26:40.835Z,0.90
2018-08-29T04:29:08.659Z,1.30
2018-08-29T04:31:36.492Z,0.80
2018-08-29T04:34:04.389Z,0.87
2018-08-29T04:36:32.256Z,1.03
2018-08-29T04:39:00.024Z,0.87
2018-08-29T04:41:27.916Z,1.23
2018-08-29T04:43:55.721Z,0.97
2018-08-29T04:46:23.509Z,1.27
2018-08-29T04:48:51.270Z,1.27
2018-08-29T04:51:19.124Z,0.80
2018-08-29T04:53:46.942Z,1.37
2018-08-29T04:56:14.811Z,1.13
2018-08-29T04:58:42.594Z,1.20
2018-08-29T05:01:10.429Z,1.17
2018-08-29T05:03:38.348Z,1.43
2018-08-29T05:06:06.779Z,0.80
2018-08-29T05:08:34.580Z,1.60
2018-08-29T05:11:02.383Z,1.40
2018-08-29T05:13:30.141Z,1.30
2018-08-29T05:15:57.986Z,0.83
2018-08-29T05:18:25.801Z,1.43
2018-08-29T05:20:53.563Z,1.10
2018-08-29T05:23:21.444Z,2.00
2018-08-29T05:25:49.283Z,1.37
2018-08-29T05:28:17.233Z,1.23
2018-08-29T05:30:45.120Z,1.37
2018-08-29T05:33:12.944Z,0.90
2018-08-29T05:35:40.765Z,1.47
2018-08-29T05:38:08.535Z,1.00
2018-08-29T05:40:36.463Z,0.97
2018-08-29T05:43:04.319Z,1.07
2018-08-29T05:45:32.122Z,1.03
2018-08-29T05:48:00.490Z,1.30
2018-08-29T05:50:28.302Z,1.10
2018-08-29T05:52:56.349Z,1.47
2018-08-29T05:55:24.169Z,0.93
2018-08-29T05:57:51.945Z,1.07
2018-08-29T06:00:19.803Z,1.20
2018-08-29T06:02:47.755Z,1.30
2018-08-29T06:05:15.663Z,1.33
2018-08-29T06:07:43.504Z,1.30
2018-08-29T06:10:11.387Z,1.00
2018-08-29T06:12:39.216Z,1.20
2018-08-29T06:15:07.118Z,1.10
2018-08-29T06:17:35.044Z,1.40
2018-08-29T06:20:02.979Z,1.30
2018-08-29T06:22:30.780Z,1.13
2018-08-29T06:24:58.907Z,1.33
2018-08-29T06:27:26.808Z,1.00
2018-08-29T06:29:54.713Z,1.10
2018-08-29T06:32:22.579Z,1.07
2018-08-29T06:34:50.411Z,1.30
2018-08-29T06:37:18.243Z,1.30
2018-08-29T06:39:46.159Z,1.43
2018-08-29T06:42:14.044Z,0.93
2018-08-29T06:44:41.839Z,0.70
2018-08-29T06:47:09.744Z,0.97
2018-08-29T06:49:37.588Z,0.73
2018-08-29T06:52:05.448Z,1.20
2018-08-29T06:54:33.270Z,1.20
2018-08-29T06:57:01.078Z,1.00
2018-08-29T06:59:28.911Z,1.37
2018-08-29T07:01:56.723Z,0.60
2018-08-29T07:04:24.591Z,0.50
2018-08-29T07:06:52.391Z,0.83
2018-08-29T07:09:20.262Z,1.13
2018-08-29T07:11:48.067Z,0.80
2018-08-29T07:14:15.983Z,1.40
2018-08-29T07:16:43.756Z,0.73
2018-08-29T07:19:11.553Z,0.83
2018-08-29T07:21:39.466Z,0.70
2018-08-29T07:24:07.686Z,1.13
2018-08-29T07:26:35.579Z,0.70
2018-08-29T07:29:03.375Z,1.20
2018-08-29T07:31:31.155Z,1.47
2018-08-29T07:33:58.991Z,1.03
2018-08-29T07:36:26.799Z,0.87
2018-08-29T07:38:54.971Z,1.03
2018-08-29T07:41:24.099Z,0.93
2018-08-29T07:43:51.943Z,1.00
2018-08-29T07:46:19.783Z,2.00
2018-08-29T07:48:47.630Z,0.97
2018-08-29T07:51:15.416Z,0.90
2018-08-29T07:53:43.365Z,1.10
2018-08-29T07:56:11.267Z,0.73
2018-08-29T07:58:39.051Z,1.10
2018-08-29T08:01:06.941Z,1.10
2018-08-29T08:03:34.795Z,0.73
2018-08-29T08:06:02.565Z,1.17
2018-08-29T08:08:30.807Z,0.97
2018-08-29T08:10:58.320Z,1.17
2018-08-29T08:13:26.089Z,0.80
2018-08-29T08:15:53.960Z,1.10
2018-08-29T08:18:21.800Z,0.57
2018-08-29T08:20:49.742Z,1.13
2018-08-29T08:23:17.550Z,0.73
2018-08-29T08:25:45.424Z,0.93
2018-08-29T08:28:13.208Z,1.20
2018-08-29T08:30:41.039Z,1.20
2018-08-29T08:33:08.827Z,1.20
2018-08-29T08:35:36.638Z,0.90
2018-08-29T08:38:04.580Z,1.50
2018-08-29T08:40:32.393Z,1.00
2018-08-29T08:43:00.334Z,1.10
2018-08-29T08:45:28.131Z,0.73
2018-08-29T08:47:56.178Z,1.03
2018-08-29T08:50:23.853Z,1.13
2018-08-29T08:52:51.671Z,1.43
2018-08-29T08:55:19.555Z,1.20
2018-08-29T08:57:47.333Z,0.83
2018-08-29T09:00:15.100Z,3.53
2018-08-29T09:02:42.939Z,1.00
2018-08-29T09:05:10.815Z,0.97
2018-08-29T09:07:38.616Z,0.80
2018-08-29T09:10:06.474Z,0.90
2018-08-29T09:12:34.344Z,0.93
2018-08-29T09:15:02.130Z,0.40
2018-08-29T09:17:29.951Z,1.73
2018-08-29T09:19:57.791Z,18.17
2018-08-29T09:22:25.756Z,4.60
2018-08-29T09:24:53.539Z,1.40
2018-08-29T09:27:21.388Z,1.40
2018-08-29T09:29:49.239Z,1.20
2018-08-29T09:32:17.006Z,0.97
2018-08-29T09:34:44.853Z,1.00
2018-08-29T09:37:12.654Z,1.40
2018-08-29T09:39:40.427Z,1.20
2018-08-29T09:42:08.256Z,1.00
2018-08-29T09:44:36.063Z,1.63
2018-08-29T09:47:04.028Z,1.20
2018-08-29T09:49:31.920Z,3.13
2018-08-29T09:51:59.814Z,1.33
2018-08-29T09:54:27.660Z,1.60
2018-08-29T09:56:55.501Z,2.20
2018-08-29T09:59:23.267Z,1.17
2018-08-29T10:01:58.171Z,1.03
2018-08-29T10:04:27.196Z,0.83
2018-08-29T10:06:55.016Z,1.30
2018-08-29T10:09:22.923Z,1.20
2018-08-29T10:11:51.067Z,0.90
2018-08-29T10:14:18.840Z,0.87
2018-08-29T10:16:46.635Z,1.30
2018-08-29T10:19:14.574Z,1.00
2018-08-29T10:21:42.530Z,1.20
2018-08-29T10:24:10.468Z,1.00
2018-08-29T10:26:38.367Z,1.10
2018-08-29T10:29:06.142Z,1.20
2018-08-29T10:31:33.951Z,4.63
2018-08-29T10:34:01.815Z,1.30
2018-08-29T10:36:29.684Z,1.20
2018-08-29T10:38:57.523Z,1.27
2018-08-29T10:41:25.291Z,1.10
2018-08-29T10:43:53.268Z,1.27
2018-08-29T10:46:21.060Z,0.57
2018-08-29T10:48:49.259Z,0.63
2018-08-29T10:51:17.054Z,0.67
2018-08-29T10:53:44.830Z,0.63
2018-08-29T10:56:13.051Z,0.83
2018-08-29T10:58:40.863Z,0.67
2018-08-29T11:01:08.814Z,1.40
2018-08-29T11:03:36.601Z,0.90
2018-08-29T11:06:04.402Z,0.80
2018-08-29T11:08:32.268Z,0.80
2018-08-29T11:11:00.055Z,1.20
2018-08-29T11:13:27.953Z,0.67
2018-08-29T11:15:55.890Z,1.47
2018-08-29T11:18:23.782Z,1.17
2018-08-29T11:20:51.659Z,3.30
2018-08-29T11:23:19.554Z,1.30
2018-08-29T11:25:47.779Z,1.60
2018-08-29T11:28:15.819Z,1.87
2018-08-29T11:30:43.471Z,1.27
2018-08-29T11:33:11.226Z,0.87
2018-08-29T11:35:39.112Z,1.10
2018-08-29T11:38:07.067Z,1.10
2018-08-29T11:40:34.851Z,1.00
2018-08-29T11:43:02.742Z,1.03
2018-08-29T11:45:30.630Z,1.70
2018-08-29T11:47:58.427Z,3.23
2018-08-29T11:50:26.313Z,3.67
2018-08-29T11:52:54.210Z,1.20
2018-08-29T11:55:21.986Z,4.47
2018-08-29T11:57:49.972Z,1.20
2018-08-29T12:00:17.751Z,1.70
2018-08-29T12:02:45.747Z,1.93
2018-08-29T12:05:13.587Z,1.40
2018-08-29T12:07:41.425Z,0.90
2018-08-29T12:10:09.277Z,0.80
2018-08-29T12:12:37.038Z,1.40
2018-08-29T12:15:04.839Z,0.87
2018-08-29T12:17:32.735Z,1.20
2018-08-29T12:20:00.512Z,7.93
2018-08-29T12:22:28.419Z,1.53
2018-08-29T12:24:56.224Z,1.40
2018-08-29T12:27:24.095Z,1.40
2018-08-29T12:29:51.935Z,1.10
2018-08-29T12:32:19.771Z,0.83
2018-08-29T12:34:47.608Z,0.83
2018-08-29T12:37:15.536Z,1.47
2018-08-29T12:39:43.416Z,1.00
2018-08-29T12:42:11.298Z,1.00
2018-08-29T12:44:39.875Z,0.87
2018-08-29T12:47:07.836Z,1.10
2018-08-29T12:49:35.669Z,1.03
2018-08-29T12:52:03.516Z,1.07
2018-08-29T12:54:31.323Z,1.07
2018-08-29T12:56:59.235Z,0.80
2018-08-29T12:59:27.080Z,0.93
2018-08-29T13:01:54.964Z,1.27
2018-08-29T13:04:22.795Z,0.80
2018-08-29T13:06:50.563Z,0.70
2018-08-29T13:09:18.368Z,1.37
2018-08-29T13:11:46.131Z,0.70
2018-08-29T13:14:13.898Z,1.03
2018-08-29T13:16:41.690Z,1.60
2018-08-29T13:19:09.471Z,1.93
2018-08-29T13:21:37.338Z,1.03
2018-08-29T13:24:05.195Z,0.80
2018-08-29T13:26:33.029Z,1.23
2018-08-29T13:29:00.822Z,1.10
2018-08-29T13:31:28.639Z,1.07
2018-08-29T13:33:56.459Z,0.90
2018-08-29T13:36:24.267Z,1.07
2018-08-29T13:38:52.115Z,1.03
2018-08-29T13:41:19.980Z,0.70
2018-08-29T13:43:47.742Z,1.30
2018-08-29T13:46:15.551Z,0.70
2018-08-29T13:48:43.437Z,1.10
2018-08-29T13:51:11.347Z,1.00
2018-08-29T13:53:39.179Z,0.73
2018-08-29T13:56:07.163Z,0.97
2018-08-29T13:58:34.996Z,1.07
2018-08-29T14:01:02.987Z,0.90
2018-08-29T14:03:30.788Z,1.10
2018-08-29T14:05:58.588Z,1.13
2018-08-29T14:08:26.491Z,0.90
2018-08-29T14:10:54.399Z,0.90
2018-08-29T14:13:22.340Z,1.20
2018-08-29T14:15:50.123Z,1.00
2018-08-29T14:18:18.099Z,1.10
2018-08-29T14:20:45.985Z,0.93
2018-08-29T14:23:13.776Z,1.03
2018-08-29T14:25:41.623Z,1.23
2018-08-29T14:28:09.458Z,1.37
2018-08-29T14:30:37.287Z,1.17
2018-08-29T14:33:05.093Z,0.90
2018-08-29T14:35:32.927Z,0.80
2018-08-29T14:38:00.708Z,0.87
2018-08-29T14:40:28.483Z,0.93
2018-08-29T14:42:56.279Z,0.97
2018-08-29T14:45:24.147Z,0.87
2018-08-29T14:47:52.104Z,1.00
2018-08-29T14:50:19.923Z,0.80
2018-08-29T14:52:47.687Z,1.00
2018-08-29T14:55:15.484Z,1.00
2018-08-29T14:57:43.375Z,0.80
2018-08-29T15:00:19.552Z,1.03
2018-08-29T15:03:50.063Z,1.03
2018-08-29T15:06:17.988Z,1.13
2018-08-29T15:08:45.802Z,1.03
2018-08-29T15:11:13.752Z,1.10
2018-08-29T15:13:41.514Z,1.07
2018-08-29T15:16:09.413Z,1.20
2018-08-29T15:18:37.291Z,0.90
2018-08-29T15:21:05.215Z,1.10
2018-08-29T15:23:33.090Z,1.00
2018-08-29T15:26:00.858Z,1.00
2018-08-29T15:28:28.839Z,1.00
2018-08-29T15:30:56.713Z,1.10
2018-08-29T15:33:24.499Z,1.20
2018-08-29T15:35:52.383Z,1.17
2018-08-29T15:38:20.147Z,0.63
2018-08-29T15:40:47.955Z,0.60
2018-08-29T15:43:15.816Z,0.90
2018-08-29T15:45:43.586Z,1.07
2018-08-29T15:48:11.425Z,1.00
2018-08-29T15:50:39.228Z,0.60
2018-08-29T15:53:07.103Z,0.83
2018-08-29T15:55:34.916Z,1.40
2018-08-29T15:58:02.684Z,1.30
2018-08-29T16:00:30.632Z,1.07
2018-08-29T16:02:58.415Z,1.50
2018-08-29T16:05:26.232Z,1.17
2018-08-29T16:07:54.071Z,1.13
2018-08-29T16:10:21.942Z,1.00
2018-08-29T16:12:49.791Z,1.03
2018-08-29T16:15:17.591Z,1.17
2018-08-29T16:17:45.367Z,0.70
2018-08-29T16:20:13.171Z,1.07
2018-08-29T16:22:41.037Z,1.40
2018-08-29T16:25:08.844Z,0.80
2018-08-29T16:27:36.686Z,1.23
2018-08-29T16:30:04.626Z,1.00
2018-08-29T16:32:32.511Z,1.37
2018-08-29T16:35:00.386Z,0.90
2018-08-29T16:37:28.199Z,1.80
2018-08-29T16:39:55.994Z,1.20
2018-08-29T16:42:24.073Z,0.90
2018-08-29T16:44:51.923Z,0.87
2018-08-29T16:47:19.915Z,1.10
2018-08-29T16:49:47.694Z,0.90
2018-08-29T16:52:15.636Z,1.07
2018-08-29T16:54:43.493Z,1.20
2018-08-29T16:57:11.262Z,1.33
2018-08-29T16:59:39.185Z,0.90
2018-08-29T17:02:07.068Z,1.20
2018-08-29T17:04:35.023Z,1.20
2018-08-29T17:07:02.968Z,0.87
2018-08-29T17:09:30.767Z,1.10
2018-08-29T17:11:58.619Z,1.20
2018-08-29T17:14:26.623Z,3.60
2018-08-29T17:16:54.399Z,3.17
2018-08-29T17:19:22.202Z,3.03
2018-08-29T17:21:50.199Z,3.67
2018-08-29T17:24:18.129Z,3.20
2018-08-29T17:26:46.064Z,3.70
2018-08-29T17:29:14.047Z,3.87
2018-08-29T17:31:42.099Z,3.37
2018-08-29T17:34:09.959Z,3.43
2018-08-29T17:36:37.765Z,3.93
2018-08-29T17:39:06.341Z,4.27
2018-08-29T17:41:34.115Z,3.90
2018-08-29T17:44:02.129Z,6.10
2018-08-29T17:46:30.015Z,4.10
2018-08-29T17:48:57.830Z,4.00
2018-08-29T17:51:25.841Z,4.37
2018-08-29T17:53:53.990Z,4.27
2018-08-29T17:56:21.802Z,3.10
2018-08-29T17:58:49.615Z,3.57
2018-08-29T18:01:17.531Z,3.83
2018-08-29T18:03:45.882Z,3.43
2018-08-29T18:06:13.675Z,3.80
2018-08-29T18:08:41.498Z,12.67
2018-08-29T18:11:09.372Z,6.50
2018-08-29T18:13:37.349Z,4.37
2018-08-29T18:16:05.608Z,3.73
2018-08-29T18:18:33.467Z,3.23
2018-08-29T18:21:01.303Z,3.17
2018-08-29T18:23:29.106Z,3.20
2018-08-29T18:25:56.993Z,2.93
2018-08-29T18:28:25.645Z,3.63
2018-08-29T18:30:53.536Z,3.40
2018-08-29T18:33:21.680Z,4.00
2018-08-29T18:35:49.655Z,4.10
2018-08-29T18:38:17.596Z,3.60
2018-08-29T18:40:45.538Z,3.43
2018-08-29T18:43:13.470Z,3.53
2018-08-29T18:45:41.344Z,3.60
2018-08-29T18:48:09.187Z,3.70
2018-08-29T18:50:37.095Z,6.83
2018-08-29T18:53:05.058Z,7.10
2018-08-29T18:55:32.802Z,5.20
2018-08-29T18:58:00.641Z,4.37
2018-08-29T19:00:28.867Z,4.43
2018-08-29T19:02:56.704Z,3.50
2018-08-29T19:05:24.531Z,4.57
2018-08-29T19:07:52.362Z,4.13
2018-08-29T19:10:20.167Z,4.80
2018-08-29T19:12:48.023Z,4.20
2018-08-29T19:15:15.820Z,3.83
2018-08-29T19:17:43.631Z,4.73
2018-08-29T19:20:11.431Z,4.10
2018-08-29T19:22:39.424Z,4.57
2018-08-29T19:25:07.482Z,3.63
2018-08-29T19:27:35.156Z,3.97
2018-08-29T19:30:02.941Z,3.97
2018-08-29T19:32:30.730Z,4.17
2018-08-29T19:34:58.511Z,3.80
2018-08-29T19:37:26.363Z,4.13
2018-08-29T19:39:54.134Z,4.63
2018-08-29T19:42:22.003Z,3.93
2018-08-29T19:44:49.889Z,4.07
2018-08-29T19:47:17.651Z,3.97
2018-08-29T19:49:45.434Z,4.47
2018-08-29T19:52:13.255Z,3.67
2018-08-29T19:54:41.035Z,4.00
2018-08-29T19:57:08.808Z,3.70
2018-08-29T19:59:36.711Z,3.63
2018-08-29T20:02:04.615Z,3.70
2018-08-29T20:04:32.387Z,3.80
2018-08-29T20:07:00.276Z,3.43
2018-08-29T20:09:28.111Z,3.63
2018-08-29T20:11:55.919Z,3.83
2018-08-29T20:14:23.691Z,4.53
2018-08-29T20:16:51.613Z,4.00
2018-08-29T20:19:19.383Z,3.57
2018-08-29T20:21:47.264Z,3.97
2018-08-29T20:24:15.203Z,3.57
2018-08-29T20:26:43.047Z,4.03
2018-08-29T20:29:10.985Z,3.40
2018-08-29T20:31:38.788Z,3.73
2018-08-29T20:34:06.682Z,3.70
2018-08-29T20:36:34.512Z,4.17
2018-08-29T20:39:02.351Z,3.80
2018-08-29T20:41:30.180Z,3.83
2018-08-29T20:43:57.989Z,3.80
2018-08-29T20:46:25.771Z,4.37
2018-08-29T20:48:53.597Z,3.93
2018-08-29T20:51:21.439Z,4.37
2018-08-29T20:53:49.379Z,4.00
2018-08-29T20:56:17.148Z,3.77
2018-08-29T20:58:45.002Z,3.47
2018-08-29T21:01:13.007Z,3.90
2018-08-29T21:03:40.705Z,3.43
2018-08-29T21:06:08.471Z,3.80
2018-08-29T21:08:36.350Z,3.23
2018-08-29T21:11:04.227Z,3.53
2018-08-29T21:13:32.066Z,3.90
2018-08-29T21:15:59.842Z,3.57
2018-08-29T21:18:27.634Z,3.80
2018-08-29T21:20:55.557Z,4.13
2018-08-29T21:23:23.505Z,3.73
2018-08-29T21:25:51.367Z,3.60
2018-08-29T21:28:25.863Z,3.20
2018-08-29T21:30:59.263Z,3.40
2018-08-29T21:33:32.435Z,3.83
2018-08-29T21:36:07.628Z,3.40
2018-08-29T21:38:35.386Z,3.97
2018-08-29T21:41:03.199Z,3.93
2018-08-29T21:44:02.516Z,4.20
2018-08-29T21:46:35.526Z,4.00
2018-08-29T21:49:08.615Z,3.93
2018-08-29T21:51:43.161Z,3.30
2018-08-29T21:54:16.215Z,4.30
2018-08-29T21:56:51.137Z,4.00
2018-08-29T21:59:27.260Z,3.57
2018-08-29T22:11:58.858Z,4.23
2018-08-29T22:14:26.692Z,4.50
2018-08-29T22:16:54.495Z,4.17
2018-08-29T22:19:22.329Z,4.07
2018-08-29T22:21:50.252Z,4.23
2018-08-29T22:24:18.202Z,4.80
2018-08-29T22:26:46.023Z,4.20
2018-08-29T22:29:13.910Z,4.17
2018-08-29T22:31:41.683Z,4.13
2018-08-29T22:34:09.496Z,4.23
2018-08-29T22:36:37.290Z,4.57
2018-08-29T22:39:05.579Z,3.83
2018-08-29T22:41:33.400Z,3.90
2018-08-29T22:44:01.236Z,3.97
2018-08-29T22:46:29.152Z,4.57
2018-08-29T22:48:56.945Z,4.20
2018-08-29T22:51:24.807Z,3.93
2018-08-29T22:53:52.571Z,4.03
2018-08-29T22:56:20.423Z,4.40
2018-08-29T22:58:48.199Z,3.83
2018-08-29T23:01:15.979Z,4.50
2018-08-29T23:03:43.879Z,4.30
2018-08-29T23:06:11.664Z,3.90
2018-08-29T23:08:39.603Z,4.73
2018-08-29T23:11:07.464Z,3.67
2018-08-29T23:13:35.344Z,4.07
2018-08-29T23:16:03.216Z,3.73
2018-08-29T23:18:31.068Z,3.80
2018-08-29T23:20:58.963Z,4.30
2018-08-29T23:23:26.748Z,4.20
2018-08-29T23:25:54.631Z,3.83
2018-08-29T23:28:22.406Z,4.00
2018-08-29T23:30:50.191Z,4.47
2018-08-29T23:33:17.975Z,3.40
2018-08-29T23:35:46.356Z,3.87
2018-08-29T23:38:14.247Z,3.97
2018-08-29T23:40:42.284Z,3.80
2018-08-29T23:43:10.114Z,3.93
2018-08-29T23:45:37.943Z,4.67
2018-08-29T23:48:06.208Z,3.83
2018-08-29T23:50:33.990Z,4.80
2018-08-29T23:53:01.780Z,4.03
2018-08-29T23:55:29.685Z,4.40
2018-08-29T23:57:57.515Z,3.47
